Startpagina
METAR-TAF:

METAR-TAF

Vliegvelden :

Vlissingen, Nederland

breedte: 51-27N, lengte: 3-36E, hoogte: 10 m

Actueel weer

Dit bericht is 46 minuten geleden gemaakt, om 06:55 UTC
Wind 10 kt uit het westen
Temperatuur 8°C
Vochtigheid 87%
Druk 1007 hPa
Zicht 10 km of meer

METAR: EHFS 240655Z AUTO 27010KT 9999 FEW012/// SCT040/// 08/06 Q1007

Tijdstip: 08:41 (07:41 UTC)


TAF: ontbreekt

Waarnemingen en weersverwachtingen van meer dan 4000 vliegvelden (METAR en TAF).

De beschikbare stations zijn de gele en rode punten op de kaart.

Ga met uw muis naar het station om de naam te zien.

Klik dan om waarnemingen en weersverwachtingen te zien.

kaart wijzigen: klik op de groene knoppen met een zwart kruis om in te zoomen, op de groene knop met een streepje om uit te zoomen of op de groene pijlen voor aangrenzende kaarten.


METAR-TAF: